createdAt,value
2022-08-02T00:00:40.922Z,93.04
2022-08-02T00:03:09.056Z,92.69
2022-08-02T00:05:37.382Z,93.47
2022-08-02T00:08:05.803Z,93.00
2022-08-02T00:10:35.580Z,92.68
2022-08-02T00:13:05.333Z,92.53
2022-08-02T00:15:33.781Z,92.80
2022-08-02T00:18:01.836Z,92.53
2022-08-02T00:20:30.760Z,92.80
2022-08-02T00:22:58.882Z,93.33
2022-08-02T00:25:28.790Z,93.61
2022-08-02T00:27:58.243Z,93.36
2022-08-02T00:30:26.549Z,94.96
2022-08-02T00:32:54.598Z,94.07
2022-08-02T00:35:22.638Z,94.23
2022-08-02T00:37:50.719Z,94.96
2022-08-02T00:40:23.400Z,94.83
2022-08-02T00:43:06.737Z,96.13
2022-08-02T00:46:02.297Z,96.23
2022-08-02T00:48:24.029Z,96.18
2022-08-02T00:51:23.803Z,96.13
2022-08-02T00:53:51.870Z,96.89
2022-08-02T00:56:26.541Z,97.07
2022-08-02T00:58:55.970Z,97.34
2022-08-02T01:01:38.610Z,98.18
2022-08-02T01:04:31.447Z,98.63
2022-08-02T01:07:13.318Z,98.80
2022-08-02T01:09:43.603Z,99.88
2022-08-02T01:12:12.855Z,100.00
2022-08-02T01:14:44.039Z,100.00
2022-08-02T01:17:17.692Z,100.00
2022-08-02T01:19:55.511Z,100.00
2022-08-02T01:23:07.125Z,100.00
2022-08-02T01:26:00.909Z,100.00
2022-08-02T01:28:39.212Z,100.00
2022-08-02T01:31:15.502Z,100.00
2022-08-02T01:33:49.759Z,100.00
2022-08-02T01:36:21.459Z,100.00
2022-08-02T01:38:51.836Z,100.00
2022-08-02T01:41:22.876Z,100.00
2022-08-02T01:43:59.522Z,100.00
2022-08-02T01:46:30.333Z,100.00
2022-08-02T01:49:01.057Z,100.00
2022-08-02T01:51:47.984Z,100.00
2022-08-02T01:54:19.588Z,100.00
2022-08-02T01:56:50.271Z,100.00
2022-08-02T01:59:37.036Z,100.00
2022-08-02T02:02:09.391Z,100.00
2022-08-02T02:04:39.325Z,100.00
2022-08-02T02:07:08.472Z,100.00
2022-08-02T02:09:47.875Z,100.00
2022-08-02T02:12:20.949Z,100.00
2022-08-02T02:14:52.248Z,100.00
2022-08-02T02:17:50.622Z,100.00
2022-08-02T02:20:15.022Z,100.00
2022-08-02T02:22:44.012Z,100.00
2022-08-02T02:25:15.518Z,100.00
2022-08-02T02:27:49.837Z,100.00
2022-08-02T02:30:20.063Z,100.00
2022-08-02T02:32:49.975Z,100.00
2022-08-02T02:35:20.617Z,100.00
2022-08-02T02:37:50.843Z,100.00
2022-08-02T02:40:21.205Z,100.00
2022-08-02T02:42:50.918Z,100.00
2022-08-02T02:45:22.368Z,100.00
2022-08-02T02:47:51.885Z,100.00
2022-08-02T02:50:21.843Z,100.00
2022-08-02T02:52:51.472Z,100.00
2022-08-02T02:55:20.196Z,100.00
2022-08-02T02:57:49.131Z,100.00
2022-08-02T03:00:17.677Z,100.00
2022-08-02T03:02:47.530Z,100.00
2022-08-02T03:05:16.933Z,100.00
2022-08-02T03:07:45.058Z,100.00
2022-08-02T03:10:13.295Z,100.00
2022-08-02T03:12:42.992Z,100.00
2022-08-02T03:15:14.193Z,100.00
2022-08-02T03:17:43.554Z,100.00
2022-08-02T03:20:15.668Z,100.00
2022-08-02T03:22:44.872Z,100.00
2022-08-02T03:25:14.496Z,100.00
2022-08-02T03:27:42.966Z,100.00
2022-08-02T03:30:15.636Z,100.00
2022-08-02T03:32:46.418Z,100.00
2022-08-02T03:35:23.433Z,100.00
2022-08-02T03:37:55.479Z,100.00
2022-08-02T03:40:24.274Z,100.00
2022-08-02T03:42:52.795Z,100.00
2022-08-02T03:45:21.472Z,100.00
2022-08-02T03:47:50.165Z,100.00
2022-08-02T03:50:23.056Z,100.00
2022-08-02T03:52:52.155Z,100.00
2022-08-02T03:55:20.437Z,100.00
2022-08-02T03:57:48.608Z,100.00
2022-08-02T04:00:22.608Z,100.00
2022-08-02T04:02:52.494Z,100.00
2022-08-02T04:05:22.240Z,100.00
2022-08-02T04:08:34.266Z,100.00
2022-08-02T04:11:04.852Z,100.00
2022-08-02T04:13:37.107Z,100.00
2022-08-02T04:16:09.727Z,100.00
2022-08-02T04:18:44.525Z,100.00
2022-08-02T04:21:18.722Z,100.00
2022-08-02T04:23:48.896Z,100.00
2022-08-02T04:26:17.670Z,100.00
2022-08-02T04:28:46.864Z,100.00
2022-08-02T04:31:15.752Z,100.00
2022-08-02T04:33:44.157Z,100.00
2022-08-02T04:36:15.155Z,100.00
2022-08-02T04:38:59.352Z,100.00
2022-08-02T04:41:43.758Z,100.00
2022-08-02T04:44:12.968Z,100.00
2022-08-02T04:46:42.921Z,100.00
2022-08-02T04:49:19.877Z,100.00
2022-08-02T04:51:49.315Z,100.00
2022-08-02T04:54:17.426Z,100.00
2022-08-02T04:56:45.507Z,100.00
2022-08-02T04:59:13.509Z,100.00
2022-08-02T05:01:42.627Z,100.00
2022-08-02T05:04:10.756Z,100.00
2022-08-02T05:06:38.760Z,100.00
2022-08-02T05:09:08.280Z,100.00
2022-08-02T05:11:37.452Z,100.00
2022-08-02T05:14:07.838Z,100.00
2022-08-02T05:16:37.057Z,100.00
2022-08-02T05:19:06.003Z,100.00
2022-08-02T05:21:34.062Z,100.00
2022-08-02T05:24:02.199Z,100.00
2022-08-02T05:26:31.691Z,100.00
2022-08-02T05:28:59.723Z,100.00
2022-08-02T05:31:27.686Z,100.00
2022-08-02T05:33:55.866Z,100.00
2022-08-02T05:36:24.108Z,100.00
2022-08-02T05:39:04.658Z,100.00
2022-08-02T05:41:34.413Z,99.95
2022-08-02T05:44:02.459Z,98.56
2022-08-02T05:46:30.608Z,98.30
2022-08-02T05:48:58.780Z,99.16
2022-08-02T05:51:32.485Z,98.83
2022-08-02T05:54:07.994Z,99.02
2022-08-02T05:56:44.776Z,99.57
2022-08-02T05:59:19.297Z,98.08
2022-08-02T06:01:50.222Z,98.01
2022-08-02T06:04:26.138Z,96.66
2022-08-02T06:07:22.840Z,96.03
2022-08-02T06:09:52.553Z,94.29
2022-08-02T06:12:26.436Z,94.07
2022-08-02T06:14:57.712Z,93.83
2022-08-02T06:17:26.491Z,93.64
2022-08-02T06:20:07.275Z,93.57
2022-08-02T06:22:39.514Z,93.86
2022-08-02T06:25:48.429Z,93.24
2022-08-02T06:27:59.132Z,93.65
2022-08-02T06:30:27.874Z,94.49
2022-08-02T06:32:56.618Z,92.03
2022-08-02T06:35:27.140Z,92.25
2022-08-02T06:38:16.627Z,90.99
2022-08-02T06:40:47.442Z,91.93
2022-08-02T06:43:20.012Z,92.07
2022-08-02T06:45:48.000Z,90.01
2022-08-02T06:48:16.148Z,90.62
2022-08-02T06:50:44.489Z,90.09
2022-08-02T06:53:13.416Z,90.82
2022-08-02T06:55:44.440Z,90.38
2022-08-02T06:58:13.319Z,92.26
2022-08-02T07:00:44.444Z,91.90
2022-08-02T07:03:12.562Z,91.88
2022-08-02T07:05:41.884Z,91.92
2022-08-02T07:08:10.064Z,91.75
2022-08-02T07:10:38.087Z,89.73
2022-08-02T07:13:06.228Z,89.39
2022-08-02T07:15:34.244Z,88.99
2022-08-02T07:18:03.729Z,89.38
2022-08-02T07:20:32.741Z,89.37
2022-08-02T07:23:03.973Z,88.64
2022-08-02T07:26:02.357Z,88.80
2022-08-02T07:28:24.302Z,87.85
2022-08-02T07:30:53.392Z,86.01
2022-08-02T07:33:37.819Z,85.94
2022-08-02T07:36:09.863Z,84.80
2022-08-02T07:38:45.478Z,83.20
2022-08-02T07:41:19.885Z,81.95
2022-08-02T07:43:49.898Z,80.22
2022-08-02T07:46:17.899Z,77.95
2022-08-02T07:48:48.536Z,79.56
2022-08-02T07:51:17.370Z,79.16
2022-08-02T07:53:51.105Z,78.33
2022-08-02T07:56:30.120Z,76.58
2022-08-02T07:58:58.145Z,77.67
2022-08-02T08:01:26.159Z,77.02
2022-08-02T08:04:05.755Z,75.85
2022-08-02T08:06:33.775Z,74.70
2022-08-02T08:09:01.793Z,73.95
2022-08-02T08:11:29.860Z,71.46
2022-08-02T08:13:58.142Z,73.42
2022-08-02T08:16:29.189Z,73.48
2022-08-02T08:18:57.695Z,73.26
2022-08-02T08:21:27.139Z,71.38
2022-08-02T08:23:58.890Z,71.85
2022-08-02T08:26:26.879Z,72.36
2022-08-02T08:29:10.895Z,71.39
2022-08-02T08:31:39.172Z,71.50
2022-08-02T08:34:07.559Z,72.21
2022-08-02T08:36:38.023Z,71.37
2022-08-02T08:39:06.321Z,68.86
2022-08-02T08:41:34.364Z,69.64
2022-08-02T08:44:19.146Z,68.95
2022-08-02T08:46:50.400Z,68.37
2022-08-02T08:49:26.793Z,67.71
2022-08-02T08:51:58.014Z,67.67
2022-08-02T08:54:29.201Z,66.87
2022-08-02T08:57:02.352Z,66.49
2022-08-02T08:59:30.403Z,66.40
2022-08-02T09:02:20.355Z,65.79
2022-08-02T09:04:55.303Z,65.74
2022-08-02T09:07:25.075Z,65.29
2022-08-02T09:09:53.073Z,65.06
2022-08-02T09:12:25.188Z,64.28
2022-08-02T09:14:55.019Z,64.50
2022-08-02T09:17:22.959Z,63.98
2022-08-02T09:20:08.571Z,62.89
2022-08-02T09:22:38.100Z,62.12
2022-08-02T09:25:16.560Z,61.00
2022-08-02T09:27:44.666Z,61.16
2022-08-02T09:30:16.853Z,60.39
2022-08-02T09:32:50.081Z,60.49
2022-08-02T09:36:06.335Z,60.46
2022-08-02T09:38:26.097Z,60.61
2022-08-02T09:40:54.853Z,61.82
2022-08-02T09:43:23.154Z,62.20
2022-08-02T09:45:51.176Z,62.07
2022-08-02T09:48:19.249Z,62.80
2022-08-02T09:50:47.475Z,60.20
2022-08-02T09:53:15.977Z,61.24
2022-08-02T09:55:56.190Z,60.05
2022-08-02T09:58:24.366Z,56.86
2022-08-02T10:00:56.188Z,59.46
2022-08-02T10:03:27.388Z,58.90
2022-08-02T10:06:04.750Z,54.83
2022-08-02T10:08:34.359Z,53.83
2022-08-02T10:11:06.213Z,55.86
2022-08-02T10:13:35.682Z,55.85
2022-08-02T10:16:06.275Z,55.61
2022-08-02T10:18:41.808Z,55.90
2022-08-02T10:21:15.604Z,50.14
2022-08-02T10:23:46.238Z,50.28
2022-08-02T10:26:20.305Z,48.28
2022-08-02T10:28:50.762Z,48.82
2022-08-02T10:31:25.202Z,50.30
2022-08-02T10:33:55.117Z,49.09
2022-08-02T10:36:27.351Z,48.33
2022-08-02T10:38:58.799Z,48.89
2022-08-02T10:41:45.189Z,49.70
2022-08-02T10:44:26.217Z,45.40
2022-08-02T10:47:35.410Z,46.38
2022-08-02T10:50:04.042Z,45.53
2022-08-02T10:52:32.684Z,46.26
2022-08-02T10:55:03.627Z,47.95
2022-08-02T10:57:48.783Z,46.60
2022-08-02T11:00:28.535Z,48.15
2022-08-02T11:02:56.670Z,47.53
2022-08-02T11:05:42.124Z,46.50
2022-08-02T11:08:21.020Z,47.62
2022-08-02T11:10:49.755Z,45.86
2022-08-02T11:13:20.827Z,46.79
2022-08-02T11:15:59.318Z,46.07
2022-08-02T11:19:00.925Z,44.95
2022-08-02T11:21:31.363Z,42.63
2022-08-02T11:24:29.437Z,40.79
2022-08-02T11:26:59.116Z,43.83
2022-08-02T11:29:38.410Z,42.29
2022-08-02T11:32:08.559Z,44.19
2022-08-02T11:34:38.209Z,43.97
2022-08-02T11:37:07.756Z,43.37
2022-08-02T11:39:37.326Z,39.71
2022-08-02T11:42:09.492Z,41.35
2022-08-02T11:44:42.647Z,40.01
2022-08-02T11:47:10.811Z,39.50
2022-08-02T11:49:39.292Z,37.55
2022-08-02T11:52:11.052Z,37.91
2022-08-02T11:54:43.243Z,39.67
2022-08-02T11:57:23.884Z,39.46
2022-08-02T11:59:54.177Z,37.94
2022-08-02T12:02:23.728Z,37.00
2022-08-02T12:04:57.909Z,39.21
2022-08-02T12:07:34.773Z,38.56
2022-08-02T12:10:21.421Z,36.75
2022-08-02T12:12:54.208Z,38.97
2022-08-02T12:15:37.420Z,36.32
2022-08-02T12:18:28.144Z,35.64
2022-08-02T12:20:57.289Z,35.16
2022-08-02T12:23:25.566Z,38.00
2022-08-02T12:26:25.368Z,36.79
2022-08-02T12:28:57.757Z,36.31
2022-08-02T12:31:55.842Z,36.23
2022-08-02T12:34:31.113Z,36.31
2022-08-02T12:37:07.246Z,36.74
2022-08-02T12:39:50.008Z,34.73
2022-08-02T12:42:19.461Z,36.12
2022-08-02T12:44:55.675Z,34.13
2022-08-02T12:47:23.796Z,34.66
2022-08-02T12:50:17.160Z,35.65
2022-08-02T12:52:47.050Z,34.55
2022-08-02T12:55:19.936Z,35.37
2022-08-02T12:58:00.374Z,36.14
2022-08-02T13:00:32.486Z,35.12
2022-08-02T13:03:01.720Z,32.93
2022-08-02T13:05:57.030Z,34.31
2022-08-02T13:08:22.056Z,36.53
2022-08-02T13:10:50.670Z,37.30
2022-08-02T13:13:46.040Z,35.35
2022-08-02T13:16:14.230Z,36.10
2022-08-02T13:18:42.579Z,35.48
2022-08-02T13:21:23.535Z,36.52
2022-08-02T13:23:59.399Z,36.89
2022-08-02T13:26:31.369Z,35.55
2022-08-02T13:29:00.861Z,36.72
2022-08-02T13:31:36.468Z,35.13
2022-08-02T13:34:06.503Z,35.93
2022-08-02T13:36:36.986Z,33.28
2022-08-02T13:39:05.862Z,35.41
2022-08-02T13:41:34.265Z,34.44
2022-08-02T13:44:10.016Z,35.00
2022-08-02T13:46:44.989Z,34.03
2022-08-02T13:49:19.901Z,35.13
2022-08-02T13:51:48.519Z,36.19
2022-08-02T13:54:20.868Z,34.56
2022-08-02T13:56:49.043Z,33.17
2022-08-02T13:59:56.446Z,33.55
2022-08-02T14:02:23.595Z,34.23
2022-08-02T14:04:51.686Z,35.29
2022-08-02T14:07:19.731Z,33.97
2022-08-02T14:09:48.063Z,35.45
2022-08-02T14:12:16.781Z,35.91
2022-08-02T14:14:46.771Z,33.55
2022-08-02T14:17:14.825Z,35.45
2022-08-02T14:19:42.897Z,34.45
2022-08-02T14:22:12.381Z,35.13
2022-08-02T14:24:41.718Z,35.67
2022-08-02T14:27:10.548Z,36.19
2022-08-02T14:29:38.531Z,35.16
2022-08-02T14:32:08.773Z,36.62
2022-08-02T14:34:36.859Z,36.86
2022-08-02T14:37:04.941Z,34.27
2022-08-02T14:39:43.162Z,36.05
2022-08-02T14:42:21.818Z,36.29
2022-08-02T14:44:49.878Z,32.99
2022-08-02T14:47:19.226Z,35.73
2022-08-02T14:49:50.062Z,33.82
2022-08-02T14:52:19.663Z,32.24
2022-08-02T14:54:47.748Z,34.33
2022-08-02T14:57:16.364Z,33.02
2022-08-02T14:59:44.597Z,34.37
2022-08-02T15:05:03.967Z,35.45
2022-08-02T15:07:31.985Z,36.19
2022-08-02T15:09:59.926Z,35.40
2022-08-02T15:12:29.768Z,34.74
2022-08-02T15:14:57.983Z,35.04
2022-08-02T15:17:44.802Z,33.27
2022-08-02T15:20:24.436Z,34.75
2022-08-02T15:22:53.036Z,31.92
2022-08-02T15:25:21.276Z,33.41
2022-08-02T15:27:49.456Z,33.13
2022-08-02T15:30:22.144Z,34.81
2022-08-02T15:32:53.136Z,33.77
2022-08-02T15:35:22.849Z,35.96
2022-08-02T15:37:50.888Z,35.18
2022-08-02T15:40:25.321Z,34.57
2022-08-02T15:42:53.615Z,35.10
2022-08-02T15:45:21.587Z,35.78
2022-08-02T15:47:50.702Z,37.48
2022-08-02T15:50:22.648Z,41.61
2022-08-02T15:52:52.239Z,42.86
2022-08-02T15:55:20.514Z,43.55
2022-08-02T15:57:48.539Z,43.72
2022-08-02T16:00:18.951Z,44.38
2022-08-02T16:02:47.742Z,45.03
2022-08-02T16:05:18.085Z,45.71
2022-08-02T16:07:46.879Z,45.72
2022-08-02T16:10:18.514Z,46.07
2022-08-02T16:12:48.162Z,46.32
2022-08-02T16:15:16.304Z,46.56
2022-08-02T16:17:49.020Z,47.20
2022-08-02T16:20:22.923Z,47.05
2022-08-02T16:22:50.934Z,47.36
2022-08-02T16:25:20.535Z,48.27
2022-08-02T16:27:59.596Z,48.33
2022-08-02T16:30:34.819Z,49.68
2022-08-02T16:33:03.071Z,49.56
2022-08-02T16:35:31.073Z,49.27
2022-08-02T16:37:59.192Z,49.45
2022-08-02T16:40:28.884Z,48.90
2022-08-02T16:42:56.873Z,48.71
2022-08-02T16:45:25.020Z,48.28
2022-08-02T16:47:55.799Z,48.89
2022-08-02T16:50:27.125Z,49.06
2022-08-02T16:52:57.134Z,49.13
2022-08-02T16:55:29.299Z,49.68
2022-08-02T16:58:01.174Z,49.54
2022-08-02T17:00:29.449Z,49.95
2022-08-02T17:02:59.169Z,50.10
2022-08-02T17:05:29.814Z,50.54
2022-08-02T17:08:17.313Z,51.45
2022-08-02T17:10:45.843Z,51.12
2022-08-02T17:13:20.647Z,51.21
2022-08-02T17:16:16.133Z,51.64
2022-08-02T17:18:42.578Z,52.47
2022-08-02T17:21:11.776Z,52.80
2022-08-02T17:24:06.339Z,52.87
2022-08-02T17:26:30.071Z,52.67
2022-08-02T17:29:17.950Z,52.82
2022-08-02T17:32:04.671Z,52.84
2022-08-02T17:34:34.785Z,53.00
2022-08-02T17:37:05.687Z,53.75
2022-08-02T17:39:44.209Z,54.08
2022-08-02T17:42:23.043Z,53.58
2022-08-02T17:44:54.125Z,54.69
2022-08-02T17:47:22.721Z,55.70
2022-08-02T17:50:01.394Z,56.26
2022-08-02T17:52:51.063Z,56.65
2022-08-02T17:55:19.877Z,57.70
2022-08-02T17:57:57.579Z,57.09
2022-08-02T18:00:34.093Z,58.19
2022-08-02T18:03:05.897Z,57.82
2022-08-02T18:05:40.165Z,57.74
2022-08-02T18:08:22.748Z,58.31
2022-08-02T18:10:53.758Z,57.93
2022-08-02T18:13:23.430Z,59.09
2022-08-02T18:15:59.351Z,60.21
2022-08-02T18:18:34.465Z,61.26
2022-08-02T18:21:15.349Z,62.32
2022-08-02T18:23:49.400Z,63.92
2022-08-02T18:26:20.741Z,66.47
2022-08-02T18:28:49.255Z,67.88
2022-08-02T18:31:22.993Z,68.53
2022-08-02T18:33:57.244Z,70.17
2022-08-02T18:36:29.254Z,71.27
2022-08-02T18:38:57.355Z,72.05
2022-08-02T18:41:25.561Z,73.43
2022-08-02T18:43:56.713Z,73.64
2022-08-02T18:46:30.373Z,75.62
2022-08-02T18:49:13.307Z,77.21
2022-08-02T18:51:43.503Z,77.52
2022-08-02T18:54:11.686Z,79.79
2022-08-02T18:56:47.220Z,80.16
2022-08-02T18:59:18.089Z,80.91
2022-08-02T19:01:50.763Z,79.65
2022-08-02T19:04:27.141Z,81.05
2022-08-02T19:06:56.615Z,81.95
2022-08-02T19:09:49.780Z,82.96
2022-08-02T19:12:31.747Z,83.18
2022-08-02T19:14:59.824Z,85.26
2022-08-02T19:17:55.198Z,85.97
2022-08-02T19:20:22.468Z,85.59
2022-08-02T19:22:53.835Z,86.59
2022-08-02T19:25:50.073Z,88.37
2022-08-02T19:28:26.066Z,88.49
2022-08-02T19:30:56.844Z,91.07
2022-08-02T19:34:05.938Z,91.19
2022-08-02T19:36:27.990Z,91.58
2022-08-02T19:38:58.340Z,91.97
2022-08-02T19:41:26.797Z,88.82
2022-08-02T19:44:25.538Z,88.75
2022-08-02T19:46:49.189Z,87.89
2022-08-02T19:49:39.245Z,84.76
2022-08-02T19:52:20.295Z,85.78
2022-08-02T19:54:54.624Z,87.42
2022-08-02T19:57:25.115Z,88.44
2022-08-02T19:59:54.115Z,88.51
2022-08-02T20:02:25.413Z,89.90
2022-08-02T20:04:55.100Z,88.11
2022-08-02T20:10:13.270Z,88.51
2022-08-02T20:12:54.953Z,85.80
2022-08-02T20:15:23.436Z,83.95
2022-08-02T20:18:11.485Z,83.42
2022-08-02T20:20:44.259Z,83.18
2022-08-02T20:23:34.026Z,83.06
2022-08-02T20:26:02.801Z,81.70
2022-08-02T20:28:32.050Z,80.08
2022-08-02T20:31:07.017Z,79.71
2022-08-02T20:33:55.365Z,78.64
2022-08-02T20:36:26.761Z,77.22
2022-08-02T20:38:55.491Z,76.00
2022-08-02T20:41:46.346Z,74.97
2022-08-02T20:44:30.603Z,74.21
2022-08-02T20:47:02.170Z,74.24
2022-08-02T20:49:41.429Z,75.07
2022-08-02T20:52:23.593Z,76.30
2022-08-02T20:54:52.524Z,77.21
2022-08-02T20:57:48.970Z,77.97
2022-08-02T21:00:28.931Z,78.84
2022-08-02T21:02:56.955Z,78.63
2022-08-02T21:05:54.027Z,78.38
2022-08-02T21:08:22.248Z,77.53
2022-08-02T21:10:53.408Z,77.58
2022-08-02T21:13:46.633Z,78.57
2022-08-02T21:16:25.043Z,77.82
2022-08-02T21:18:59.764Z,77.77
2022-08-02T21:21:29.805Z,77.23
2022-08-02T21:24:00.244Z,77.00
2022-08-02T21:26:35.492Z,76.30
2022-08-02T21:29:04.473Z,76.27
2022-08-02T21:31:36.103Z,75.66
2022-08-02T21:34:21.686Z,75.49
2022-08-02T21:39:37.111Z,73.75
2022-08-02T21:42:05.309Z,74.29
2022-08-02T21:44:36.621Z,73.86
2022-08-02T21:47:09.569Z,74.64
2022-08-02T21:50:12.841Z,75.31
2022-08-02T21:52:30.499Z,74.10
2022-08-02T21:55:04.255Z,73.09
2022-08-02T21:57:34.773Z,72.40
2022-08-02T22:00:04.472Z,72.99
2022-08-02T22:02:33.475Z,74.33
2022-08-02T22:05:02.673Z,73.45
2022-08-02T22:07:38.207Z,73.91
2022-08-02T22:10:10.254Z,74.40
2022-08-02T22:12:40.350Z,75.16
2022-08-02T22:15:10.693Z,76.40
2022-08-02T22:17:51.349Z,77.03
2022-08-02T22:20:22.269Z,78.53
2022-08-02T22:22:51.466Z,79.81
2022-08-02T22:25:36.650Z,81.26
2022-08-02T22:28:36.060Z,82.67
2022-08-02T22:31:04.655Z,84.16
2022-08-02T22:34:00.811Z,85.80
2022-08-02T22:36:30.159Z,88.31
2022-08-02T22:38:58.470Z,89.61
2022-08-02T22:42:02.010Z,91.71
2022-08-02T22:44:18.519Z,93.59
2022-08-02T22:47:07.506Z,94.50
2022-08-02T22:49:51.924Z,95.27
2022-08-02T22:52:24.389Z,95.09
2022-08-02T22:54:52.515Z,95.39
2022-08-02T22:57:30.677Z,96.11
2022-08-02T22:58:54.483Z,90.50
2022-08-02T23:00:00.135Z,93.78
2022-08-02T23:02:28.443Z,93.60
2022-08-02T23:04:58.344Z,92.66
2022-08-02T23:07:26.390Z,92.48
2022-08-02T23:09:54.471Z,92.22
2022-08-02T23:12:28.479Z,92.10
2022-08-02T23:14:56.452Z,92.18
2022-08-02T23:17:42.123Z,93.31
2022-08-02T23:20:11.288Z,91.34
2022-08-02T23:22:39.356Z,89.44
2022-08-02T23:25:08.860Z,88.40
2022-08-02T23:27:38.307Z,88.42
2022-08-02T23:30:08.259Z,87.79
2022-08-02T23:32:40.099Z,87.64
2022-08-02T23:35:09.334Z,87.16
2022-08-02T23:37:58.877Z,84.99
2022-08-02T23:40:38.946Z,85.67
2022-08-02T23:43:14.271Z,85.82
2022-08-02T23:45:44.586Z,85.05
2022-08-02T23:48:13.066Z,83.07
2022-08-02T23:50:41.191Z,82.14
2022-08-02T23:53:09.207Z,83.27
2022-08-02T23:55:37.184Z,82.22
2022-08-02T23:58:05.136Z,82.20
